This is the latest recevied weather packets stored in our database for station/object HS5FXK-3. If no packets are shown the sender has not sent any weather packets the latest 10 day(s).
| Time | Temp. | Humidity | Pressure | Rain* | Wind** | Luminosity | Snow |
|---|---|---|---|---|---|---|---|
| 1777440749 | 38.89° C | 34% | 978 hPa | - | - | 0 W/m² | - |
| 1777439837 | 38.89° C | 35% | 979 hPa | - | - | 0 W/m² | - |
| 1777439223 | 37.78° C | 37% | 979 hPa | - | - | 0 W/m² | - |
| 1777438359 | 36.67° C | 40% | 979 hPa | - | - | 0 W/m² | - |
| 1777437446 | 35.56° C | 41% | 979 hPa | - | - | 0 W/m² | - |
| 1777436534 | 37.22° C | 36% | 979 hPa | - | - | 0 W/m² | - |
| 1777435622 | 36.11° C | 38% | 979 hPa | - | - | 0 W/m² | - |
| 1777434710 | 35.56° C | 39% | 980 hPa | - | - | 0 W/m² | - |
| 1777434306 | 35° C | 39% | 980 hPa | - | - | 0 W/m² | - |
| 1777433394 | 35.56° C | 40% | 980 hPa | - | - | 0 W/m² | - |
| 1777432482 | 35° C | 42% | 980 hPa | - | - | 0 W/m² | - |
| 1777431569 | 34.44° C | 45% | 980 hPa | - | - | 0 W/m² | - |
| 1777430657 | 32.78° C | 47% | 980 hPa | - | - | 0 W/m² | - |
| 1777429745 | 31.67° C | 49% | 980 hPa | - | - | 0 W/m² | - |
| 1777428833 | 32.22° C | 48% | 980 hPa | - | - | 0 W/m² | - |
| 1777427920 | 31.67° C | 50% | 980 hPa | - | - | 0 W/m² | - |
| 1777427008 | 30.56° C | 53% | 980 hPa | - | - | 0 W/m² | - |
| 1777426096 | 30° C | 56% | 980 hPa | - | - | 0 W/m² | - |
| 1777425183 | 28.89° C | 59% | 980 hPa | - | - | 0 W/m² | - |
| 1777424271 | 28.33° C | 61% | 980 hPa | - | - | 0 W/m² | - |
| 1777423359 | 27.78° C | 66% | 980 hPa | - | - | 0 W/m² | - |
| 1777422447 | 27.22° C | 68% | 979 hPa | - | - | 0 W/m² | - |
| 1777421534 | 26.67° C | 70% | 979 hPa | - | - | 0 W/m² | - |
| 1777420622 | 26.11° C | 71% | 979 hPa | - | - | 0 W/m² | - |
| 1777419710 | 26.11° C | 71% | 979 hPa | - | - | 0 W/m² | - |
* Rain since midnight (hover to see other rain measurements)
** Current wind speed in m/s (hover to see current wind gust speed)